sensor_id;sensor_type;location;lat;lon;timestamp;P1;durP1;ratioP1;P2;durP2;ratioP2
5650;SDS011;40241;52.684;9.758;2024-01-16T00:00:19;2.30;;;1.00;;
5650;SDS011;40241;52.684;9.758;2024-01-16T00:02:45;3.73;;;1.50;;
5650;SDS011;40241;52.684;9.758;2024-01-16T00:05:10;2.63;;;1.20;;
5650;SDS011;40241;52.684;9.758;2024-01-16T00:07:37;3.93;;;1.50;;
5650;SDS011;40241;52.684;9.758;2024-01-16T00:10:04;3.33;;;1.00;;
5650;SDS011;40241;52.684;9.758;2024-01-16T00:12:31;1.17;;;0.80;;
5650;SDS011;40241;52.684;9.758;2024-01-16T00:14:57;1.80;;;0.70;;
5650;SDS011;40241;52.684;9.758;2024-01-16T00:17:22;3.43;;;0.80;;
5650;SDS011;40241;52.684;9.758;2024-01-16T00:19:47;1.93;;;0.70;;
5650;SDS011;40241;52.684;9.758;2024-01-16T00:22:13;3.50;;;1.10;;
5650;SDS011;40241;52.684;9.758;2024-01-16T00:24:38;3.07;;;1.20;;
5650;SDS011;40241;52.684;9.758;2024-01-16T00:27:04;1.33;;;1.00;;
5650;SDS011;40241;52.684;9.758;2024-01-16T00:29:29;2.30;;;1.20;;
5650;SDS011;40241;52.684;9.758;2024-01-16T00:31:55;1.20;;;0.97;;
5650;SDS011;40241;52.684;9.758;2024-01-16T00:34:21;3.27;;;0.90;;
5650;SDS011;40241;52.684;9.758;2024-01-16T00:36:46;3.03;;;1.10;;
5650;SDS011;40241;52.684;9.758;2024-01-16T00:39:11;1.20;;;0.97;;
5650;SDS011;40241;52.684;9.758;2024-01-16T00:41:38;1.67;;;1.23;;
5650;SDS011;40241;52.684;9.758;2024-01-16T00:44:03;8.00;;;1.70;;
5650;SDS011;40241;52.684;9.758;2024-01-16T00:46:29;1.33;;;0.97;;
5650;SDS011;40241;52.684;9.758;2024-01-16T00:48:54;1.20;;;0.97;;
5650;SDS011;40241;52.684;9.758;2024-01-16T00:51:19;1.30;;;1.20;;
5650;SDS011;40241;52.684;9.758;2024-01-16T00:53:45;1.00;;;0.90;;
5650;SDS011;40241;52.684;9.758;2024-01-16T00:56:11;6.53;;;1.63;;
5650;SDS011;40241;52.684;9.758;2024-01-16T00:58:37;2.20;;;1.00;;
5650;SDS011;40241;52.684;9.758;2024-01-16T01:01:02;3.87;;;1.17;;
5650;SDS011;40241;52.684;9.758;2024-01-16T01:03:28;1.47;;;0.90;;
5650;SDS011;40241;52.684;9.758;2024-01-16T01:05:55;1.20;;;1.13;;
5650;SDS011;40241;52.684;9.758;2024-01-16T01:08:20;1.83;;;1.20;;
5650;SDS011;40241;52.684;9.758;2024-01-16T01:10:46;2.13;;;0.90;;
5650;SDS011;40241;52.684;9.758;2024-01-16T01:13:12;1.63;;;1.00;;
5650;SDS011;40241;52.684;9.758;2024-01-16T01:15:37;1.50;;;0.70;;
5650;SDS011;40241;52.684;9.758;2024-01-16T01:18:03;1.47;;;0.73;;
5650;SDS011;40241;52.684;9.758;2024-01-16T01:20:29;1.00;;;0.90;;
5650;SDS011;40241;52.684;9.758;2024-01-16T01:22:54;1.87;;;1.20;;
5650;SDS011;40241;52.684;9.758;2024-01-16T01:25:19;1.40;;;1.00;;
5650;SDS011;40241;52.684;9.758;2024-01-16T01:27:45;1.00;;;0.90;;
5650;SDS011;40241;52.684;9.758;2024-01-16T01:30:10;1.40;;;1.00;;
5650;SDS011;40241;52.684;9.758;2024-01-16T01:32:36;2.30;;;1.17;;
5650;SDS011;40241;52.684;9.758;2024-01-16T01:35:02;3.00;;;1.17;;
5650;SDS011;40241;52.684;9.758;2024-01-16T01:37:28;1.20;;;1.10;;
5650;SDS011;40241;52.684;9.758;2024-01-16T01:39:53;1.20;;;0.90;;
5650;SDS011;40241;52.684;9.758;2024-01-16T01:42:19;2.60;;;1.03;;
5650;SDS011;40241;52.684;9.758;2024-01-16T01:44:44;2.20;;;1.03;;
5650;SDS011;40241;52.684;9.758;2024-01-16T01:47:09;2.80;;;1.20;;
5650;SDS011;40241;52.684;9.758;2024-01-16T01:49:35;2.60;;;0.87;;
5650;SDS011;40241;52.684;9.758;2024-01-16T01:52:01;1.83;;;0.73;;
5650;SDS011;40241;52.684;9.758;2024-01-16T01:54:28;1.33;;;0.90;;
5650;SDS011;40241;52.684;9.758;2024-01-16T01:56:55;2.57;;;0.80;;
5650;SDS011;40241;52.684;9.758;2024-01-16T01:59:20;1.20;;;0.80;;
5650;SDS011;40241;52.684;9.758;2024-01-16T02:01:48;1.17;;;1.00;;
5650;SDS011;40241;52.684;9.758;2024-01-16T02:04:17;0.83;;;0.83;;
5650;SDS011;40241;52.684;9.758;2024-01-16T02:06:44;1.67;;;0.80;;
5650;SDS011;40241;52.684;9.758;2024-01-16T02:09:09;2.10;;;0.53;;
5650;SDS011;40241;52.684;9.758;2024-01-16T02:11:35;1.53;;;0.60;;
5650;SDS011;40241;52.684;9.758;2024-01-16T02:14:00;1.53;;;0.93;;
5650;SDS011;40241;52.684;9.758;2024-01-16T02:16:34;2.17;;;0.80;;
5650;SDS011;40241;52.684;9.758;2024-01-16T02:19:04;4.50;;;0.90;;
5650;SDS011;40241;52.684;9.758;2024-01-16T02:21:31;1.30;;;0.60;;
5650;SDS011;40241;52.684;9.758;2024-01-16T02:24:03;1.50;;;0.63;;
5650;SDS011;40241;52.684;9.758;2024-01-16T02:26:30;1.03;;;0.73;;
5650;SDS011;40241;52.684;9.758;2024-01-16T02:28:56;3.10;;;0.80;;
5650;SDS011;40241;52.684;9.758;2024-01-16T02:31:21;2.03;;;1.00;;
5650;SDS011;40241;52.684;9.758;2024-01-16T02:33:46;2.30;;;0.80;;
5650;SDS011;40241;52.684;9.758;2024-01-16T02:36:12;1.30;;;0.83;;
5650;SDS011;40241;52.684;9.758;2024-01-16T02:38:37;1.23;;;0.80;;
5650;SDS011;40241;52.684;9.758;2024-01-16T02:41:03;2.87;;;0.50;;
5650;SDS011;40241;52.684;9.758;2024-01-16T02:43:29;2.63;;;0.80;;
5650;SDS011;40241;52.684;9.758;2024-01-16T02:45:54;1.53;;;0.97;;
5650;SDS011;40241;52.684;9.758;2024-01-16T02:48:19;3.13;;;0.90;;
5650;SDS011;40241;52.684;9.758;2024-01-16T02:50:45;1.37;;;0.73;;
5650;SDS011;40241;52.684;9.758;2024-01-16T02:53:11;0.73;;;0.70;;
5650;SDS011;40241;52.684;9.758;2024-01-16T02:55:36;1.10;;;0.83;;
5650;SDS011;40241;52.684;9.758;2024-01-16T02:58:02;0.90;;;0.63;;
5650;SDS011;40241;52.684;9.758;2024-01-16T03:00:28;1.00;;;0.60;;
5650;SDS011;40241;52.684;9.758;2024-01-16T03:02:53;0.80;;;0.63;;
5650;SDS011;40241;52.684;9.758;2024-01-16T03:05:19;1.13;;;0.43;;
5650;SDS011;40241;52.684;9.758;2024-01-16T03:07:44;1.07;;;0.50;;
5650;SDS011;40241;52.684;9.758;2024-01-16T03:10:10;1.63;;;0.80;;
5650;SDS011;40241;52.684;9.758;2024-01-16T03:12:36;1.63;;;0.67;;
5650;SDS011;40241;52.684;9.758;2024-01-16T03:15:01;1.00;;;0.77;;
5650;SDS011;40241;52.684;9.758;2024-01-16T03:17:27;1.37;;;0.60;;
5650;SDS011;40241;52.684;9.758;2024-01-16T03:19:53;1.13;;;0.60;;
5650;SDS011;40241;52.684;9.758;2024-01-16T03:22:18;3.97;;;1.03;;
5650;SDS011;40241;52.684;9.758;2024-01-16T03:24:43;0.70;;;0.60;;
5650;SDS011;40241;52.684;9.758;2024-01-16T03:27:09;1.40;;;0.70;;
5650;SDS011;40241;52.684;9.758;2024-01-16T03:29:34;1.00;;;0.90;;
5650;SDS011;40241;52.684;9.758;2024-01-16T03:31:59;1.37;;;0.77;;
5650;SDS011;40241;52.684;9.758;2024-01-16T03:34:26;1.13;;;0.80;;
5650;SDS011;40241;52.684;9.758;2024-01-16T03:36:52;1.13;;;0.80;;
5650;SDS011;40241;52.684;9.758;2024-01-16T03:39:17;1.33;;;0.93;;
5650;SDS011;40241;52.684;9.758;2024-01-16T03:41:43;4.03;;;1.30;;
5650;SDS011;40241;52.684;9.758;2024-01-16T03:44:08;1.23;;;0.93;;
5650;SDS011;40241;52.684;9.758;2024-01-16T03:46:34;1.20;;;1.00;;
5650;SDS011;40241;52.684;9.758;2024-01-16T03:48:59;1.70;;;0.70;;
5650;SDS011;40241;52.684;9.758;2024-01-16T03:51:25;4.90;;;0.97;;
5650;SDS011;40241;52.684;9.758;2024-01-16T03:53:50;3.80;;;0.97;;
5650;SDS011;40241;52.684;9.758;2024-01-16T03:56:16;1.93;;;0.70;;
5650;SDS011;40241;52.684;9.758;2024-01-16T03:58:41;1.67;;;0.60;;
5650;SDS011;40241;52.684;9.758;2024-01-16T04:01:07;5.33;;;1.40;;
5650;SDS011;40241;52.684;9.758;2024-01-16T04:03:32;2.10;;;1.10;;
5650;SDS011;40241;52.684;9.758;2024-01-16T04:05:59;2.97;;;1.37;;
5650;SDS011;40241;52.684;9.758;2024-01-16T04:08:24;1.97;;;1.30;;
5650;SDS011;40241;52.684;9.758;2024-01-16T04:10:49;4.63;;;1.63;;
5650;SDS011;40241;52.684;9.758;2024-01-16T04:13:14;1.43;;;1.20;;
5650;SDS011;40241;52.684;9.758;2024-01-16T04:15:41;1.73;;;0.60;;
5650;SDS011;40241;52.684;9.758;2024-01-16T04:18:06;1.90;;;0.70;;
5650;SDS011;40241;52.684;9.758;2024-01-16T04:20:32;2.70;;;1.07;;
5650;SDS011;40241;52.684;9.758;2024-01-16T04:22:57;0.80;;;0.70;;
5650;SDS011;40241;52.684;9.758;2024-01-16T04:25:25;2.23;;;0.70;;
5650;SDS011;40241;52.684;9.758;2024-01-16T04:27:50;1.30;;;0.70;;
5650;SDS011;40241;52.684;9.758;2024-01-16T04:30:15;4.50;;;1.00;;
5650;SDS011;40241;52.684;9.758;2024-01-16T04:32:41;3.80;;;1.07;;
5650;SDS011;40241;52.684;9.758;2024-01-16T04:35:07;2.60;;;0.70;;
5650;SDS011;40241;52.684;9.758;2024-01-16T04:37:32;4.10;;;1.57;;
5650;SDS011;40241;52.684;9.758;2024-01-16T04:39:58;2.23;;;0.80;;
5650;SDS011;40241;52.684;9.758;2024-01-16T04:42:24;8.77;;;1.40;;
5650;SDS011;40241;52.684;9.758;2024-01-16T04:44:49;2.30;;;1.00;;
5650;SDS011;40241;52.684;9.758;2024-01-16T04:47:15;5.03;;;1.60;;
5650;SDS011;40241;52.684;9.758;2024-01-16T04:49:41;2.10;;;1.20;;
5650;SDS011;40241;52.684;9.758;2024-01-16T04:52:07;5.60;;;1.50;;
5650;SDS011;40241;52.684;9.758;2024-01-16T04:54:32;2.83;;;2.07;;
5650;SDS011;40241;52.684;9.758;2024-01-16T04:56:57;2.60;;;1.50;;
5650;SDS011;40241;52.684;9.758;2024-01-16T04:59:23;6.20;;;2.13;;
5650;SDS011;40241;52.684;9.758;2024-01-16T05:01:48;6.83;;;2.23;;
5650;SDS011;40241;52.684;9.758;2024-01-16T05:04:13;3.20;;;1.97;;
5650;SDS011;40241;52.684;9.758;2024-01-16T05:06:39;3.43;;;2.00;;
5650;SDS011;40241;52.684;9.758;2024-01-16T05:09:04;4.80;;;2.27;;
5650;SDS011;40241;52.684;9.758;2024-01-16T05:11:29;2.33;;;1.67;;
5650;SDS011;40241;52.684;9.758;2024-01-16T05:13:55;2.60;;;2.10;;
5650;SDS011;40241;52.684;9.758;2024-01-16T05:16:26;2.77;;;1.70;;
5650;SDS011;40241;52.684;9.758;2024-01-16T05:18:52;3.50;;;1.80;;
5650;SDS011;40241;52.684;9.758;2024-01-16T05:21:19;3.33;;;2.60;;
5650;SDS011;40241;52.684;9.758;2024-01-16T05:23:44;3.50;;;2.77;;
5650;SDS011;40241;52.684;9.758;2024-01-16T05:26:10;6.47;;;2.90;;
5650;SDS011;40241;52.684;9.758;2024-01-16T05:28:35;4.83;;;2.30;;
5650;SDS011;40241;52.684;9.758;2024-01-16T05:31:00;2.70;;;2.23;;
5650;SDS011;40241;52.684;9.758;2024-01-16T05:33:26;5.30;;;2.80;;
5650;SDS011;40241;52.684;9.758;2024-01-16T05:35:51;4.10;;;2.80;;
5650;SDS011;40241;52.684;9.758;2024-01-16T05:38:16;4.13;;;2.30;;
5650;SDS011;40241;52.684;9.758;2024-01-16T05:40:42;3.90;;;2.03;;
5650;SDS011;40241;52.684;9.758;2024-01-16T05:43:07;2.00;;;1.47;;
5650;SDS011;40241;52.684;9.758;2024-01-16T05:45:32;2.50;;;1.40;;
5650;SDS011;40241;52.684;9.758;2024-01-16T05:47:58;5.90;;;1.47;;
5650;SDS011;40241;52.684;9.758;2024-01-16T05:50:23;2.40;;;1.27;;
5650;SDS011;40241;52.684;9.758;2024-01-16T05:52:48;4.10;;;1.33;;
5650;SDS011;40241;52.684;9.758;2024-01-16T05:55:14;1.20;;;1.10;;
5650;SDS011;40241;52.684;9.758;2024-01-16T05:57:39;2.13;;;1.17;;
5650;SDS011;40241;52.684;9.758;2024-01-16T06:00:05;4.90;;;1.57;;
5650;SDS011;40241;52.684;9.758;2024-01-16T06:02:31;3.17;;;1.23;;
5650;SDS011;40241;52.684;9.758;2024-01-16T06:04:56;4.73;;;1.70;;
5650;SDS011;40241;52.684;9.758;2024-01-16T06:07:22;4.80;;;1.30;;
5650;SDS011;40241;52.684;9.758;2024-01-16T06:09:47;3.47;;;1.07;;
5650;SDS011;40241;52.684;9.758;2024-01-16T06:12:12;1.00;;;1.00;;
5650;SDS011;40241;52.684;9.758;2024-01-16T06:14:38;6.87;;;1.27;;
5650;SDS011;40241;52.684;9.758;2024-01-16T06:17:03;4.60;;;1.30;;
5650;SDS011;40241;52.684;9.758;2024-01-16T06:19:31;3.67;;;1.30;;
5650;SDS011;40241;52.684;9.758;2024-01-16T06:21:59;2.97;;;1.07;;
5650;SDS011;40241;52.684;9.758;2024-01-16T06:24:25;3.53;;;0.87;;
5650;SDS011;40241;52.684;9.758;2024-01-16T06:26:50;5.47;;;1.67;;
5650;SDS011;40241;52.684;9.758;2024-01-16T06:29:15;3.80;;;1.40;;
5650;SDS011;40241;52.684;9.758;2024-01-16T06:31:41;2.00;;;1.60;;
5650;SDS011;40241;52.684;9.758;2024-01-16T06:34:06;3.70;;;1.00;;
5650;SDS011;40241;52.684;9.758;2024-01-16T06:36:31;2.60;;;1.20;;
5650;SDS011;40241;52.684;9.758;2024-01-16T06:38:57;2.80;;;1.60;;
5650;SDS011;40241;52.684;9.758;2024-01-16T06:41:23;1.53;;;1.27;;
5650;SDS011;40241;52.684;9.758;2024-01-16T06:43:48;2.93;;;2.10;;
5650;SDS011;40241;52.684;9.758;2024-01-16T06:46:14;3.13;;;1.33;;
5650;SDS011;40241;52.684;9.758;2024-01-16T06:48:39;4.97;;;1.73;;
5650;SDS011;40241;52.684;9.758;2024-01-16T06:51:04;3.50;;;1.70;;
5650;SDS011;40241;52.684;9.758;2024-01-16T06:53:30;3.07;;;1.90;;
5650;SDS011;40241;52.684;9.758;2024-01-16T06:55:55;9.87;;;2.03;;
5650;SDS011;40241;52.684;9.758;2024-01-16T06:58:21;3.73;;;1.83;;
5650;SDS011;40241;52.684;9.758;2024-01-16T07:00:46;5.57;;;2.13;;
5650;SDS011;40241;52.684;9.758;2024-01-16T07:03:12;2.73;;;1.83;;
5650;SDS011;40241;52.684;9.758;2024-01-16T07:05:38;2.70;;;1.70;;
5650;SDS011;40241;52.684;9.758;2024-01-16T07:08:05;2.77;;;1.50;;
5650;SDS011;40241;52.684;9.758;2024-01-16T07:10:32;4.77;;;1.90;;
5650;SDS011;40241;52.684;9.758;2024-01-16T07:12:57;3.60;;;1.80;;
5650;SDS011;40241;52.684;9.758;2024-01-16T07:15:22;2.90;;;1.60;;
5650;SDS011;40241;52.684;9.758;2024-01-16T07:17:48;5.90;;;1.70;;
5650;SDS011;40241;52.684;9.758;2024-01-16T07:20:13;7.10;;;2.07;;
5650;SDS011;40241;52.684;9.758;2024-01-16T07:22:39;2.27;;;1.40;;
5650;SDS011;40241;52.684;9.758;2024-01-16T07:25:05;4.47;;;2.37;;
5650;SDS011;40241;52.684;9.758;2024-01-16T07:27:31;2.60;;;1.80;;
5650;SDS011;40241;52.684;9.758;2024-01-16T07:29:56;3.53;;;1.73;;
5650;SDS011;40241;52.684;9.758;2024-01-16T07:32:21;5.70;;;2.53;;
5650;SDS011;40241;52.684;9.758;2024-01-16T07:34:47;3.03;;;1.70;;
5650;SDS011;40241;52.684;9.758;2024-01-16T07:37:12;2.63;;;1.40;;
5650;SDS011;40241;52.684;9.758;2024-01-16T07:39:38;7.50;;;2.27;;
5650;SDS011;40241;52.684;9.758;2024-01-16T07:42:03;10.13;;;2.00;;
5650;SDS011;40241;52.684;9.758;2024-01-16T07:44:29;10.07;;;2.37;;
5650;SDS011;40241;52.684;9.758;2024-01-16T07:46:54;4.63;;;1.80;;
5650;SDS011;40241;52.684;9.758;2024-01-16T07:49:19;7.33;;;2.53;;
5650;SDS011;40241;52.684;9.758;2024-01-16T07:51:45;4.17;;;1.97;;
5650;SDS011;40241;52.684;9.758;2024-01-16T07:54:10;2.70;;;1.80;;
5650;SDS011;40241;52.684;9.758;2024-01-16T07:56:36;4.77;;;1.97;;
5650;SDS011;40241;52.684;9.758;2024-01-16T07:59:02;2.20;;;1.93;;
5650;SDS011;40241;52.684;9.758;2024-01-16T08:01:28;2.87;;;2.20;;
5650;SDS011;40241;52.684;9.758;2024-01-16T08:03:54;4.13;;;1.70;;
5650;SDS011;40241;52.684;9.758;2024-01-16T08:06:20;7.30;;;2.17;;
5650;SDS011;40241;52.684;9.758;2024-01-16T08:08:45;5.33;;;2.00;;
5650;SDS011;40241;52.684;9.758;2024-01-16T08:11:11;8.13;;;1.90;;
5650;SDS011;40241;52.684;9.758;2024-01-16T08:13:36;6.10;;;2.00;;
5650;SDS011;40241;52.684;9.758;2024-01-16T08:16:02;3.70;;;1.83;;
5650;SDS011;40241;52.684;9.758;2024-01-16T08:18:27;8.67;;;2.27;;
5650;SDS011;40241;52.684;9.758;2024-01-16T08:20:53;3.00;;;2.00;;
5650;SDS011;40241;52.684;9.758;2024-01-16T08:23:18;5.57;;;2.07;;
5650;SDS011;40241;52.684;9.758;2024-01-16T08:25:43;4.27;;;2.60;;
5650;SDS011;40241;52.684;9.758;2024-01-16T08:28:09;5.97;;;1.80;;
5650;SDS011;40241;52.684;9.758;2024-01-16T08:30:35;2.80;;;2.00;;
5650;SDS011;40241;52.684;9.758;2024-01-16T08:33:00;3.07;;;2.07;;
5650;SDS011;40241;52.684;9.758;2024-01-16T08:35:25;4.03;;;2.00;;
5650;SDS011;40241;52.684;9.758;2024-01-16T08:37:51;4.93;;;2.40;;
5650;SDS011;40241;52.684;9.758;2024-01-16T08:40:16;2.80;;;1.80;;
5650;SDS011;40241;52.684;9.758;2024-01-16T08:42:42;3.13;;;2.00;;
5650;SDS011;40241;52.684;9.758;2024-01-16T08:45:07;4.17;;;2.50;;
5650;SDS011;40241;52.684;9.758;2024-01-16T08:47:33;4.13;;;2.40;;
5650;SDS011;40241;52.684;9.758;2024-01-16T08:49:58;3.83;;;2.53;;
5650;SDS011;40241;52.684;9.758;2024-01-16T08:52:23;3.00;;;2.40;;
5650;SDS011;40241;52.684;9.758;2024-01-16T08:54:49;6.40;;;2.30;;
5650;SDS011;40241;52.684;9.758;2024-01-16T08:57:14;3.80;;;2.50;;
5650;SDS011;40241;52.684;9.758;2024-01-16T08:59:40;3.00;;;2.20;;
5650;SDS011;40241;52.684;9.758;2024-01-16T09:02:06;3.43;;;2.67;;
5650;SDS011;40241;52.684;9.758;2024-01-16T09:04:31;4.60;;;2.87;;
5650;SDS011;40241;52.684;9.758;2024-01-16T09:06:56;4.70;;;2.53;;
5650;SDS011;40241;52.684;9.758;2024-01-16T09:09:22;3.00;;;2.63;;
5650;SDS011;40241;52.684;9.758;2024-01-16T09:11:47;5.10;;;2.80;;
5650;SDS011;40241;52.684;9.758;2024-01-16T09:14:12;7.30;;;3.20;;
5650;SDS011;40241;52.684;9.758;2024-01-16T09:16:37;6.50;;;2.73;;
5650;SDS011;40241;52.684;9.758;2024-01-16T09:19:03;3.27;;;2.40;;
5650;SDS011;40241;52.684;9.758;2024-01-16T09:21:29;4.40;;;3.30;;
5650;SDS011;40241;52.684;9.758;2024-01-16T09:23:54;6.30;;;3.03;;
5650;SDS011;40241;52.684;9.758;2024-01-16T09:26:20;4.07;;;3.10;;
5650;SDS011;40241;52.684;9.758;2024-01-16T09:28:45;4.67;;;3.37;;
5650;SDS011;40241;52.684;9.758;2024-01-16T09:31:11;3.33;;;3.00;;
5650;SDS011;40241;52.684;9.758;2024-01-16T09:33:36;3.63;;;2.77;;
5650;SDS011;40241;52.684;9.758;2024-01-16T09:36:02;5.20;;;3.33;;
5650;SDS011;40241;52.684;9.758;2024-01-16T09:38:27;5.90;;;2.43;;
5650;SDS011;40241;52.684;9.758;2024-01-16T09:40:53;3.00;;;2.70;;
5650;SDS011;40241;52.684;9.758;2024-01-16T09:43:21;6.37;;;3.10;;
5650;SDS011;40241;52.684;9.758;2024-01-16T09:45:47;3.17;;;2.57;;
5650;SDS011;40241;52.684;9.758;2024-01-16T09:48:14;5.80;;;3.40;;
5650;SDS011;40241;52.684;9.758;2024-01-16T09:50:40;7.67;;;3.50;;
5650;SDS011;40241;52.684;9.758;2024-01-16T09:53:05;3.47;;;2.70;;
5650;SDS011;40241;52.684;9.758;2024-01-16T09:55:30;6.90;;;3.00;;
5650;SDS011;40241;52.684;9.758;2024-01-16T09:57:56;6.80;;;3.00;;
5650;SDS011;40241;52.684;9.758;2024-01-16T10:00:22;7.77;;;3.77;;
5650;SDS011;40241;52.684;9.758;2024-01-16T10:02:49;4.33;;;3.23;;
5650;SDS011;40241;52.684;9.758;2024-01-16T10:05:15;6.50;;;4.00;;
5650;SDS011;40241;52.684;9.758;2024-01-16T10:07:41;9.03;;;3.90;;
5650;SDS011;40241;52.684;9.758;2024-01-16T10:10:10;10.97;;;3.60;;
5650;SDS011;40241;52.684;9.758;2024-01-16T10:12:37;6.00;;;3.70;;
5650;SDS011;40241;52.684;9.758;2024-01-16T10:15:07;6.53;;;4.00;;
5650;SDS011;40241;52.684;9.758;2024-01-16T10:20:02;4.43;;;3.50;;
5650;SDS011;40241;52.684;9.758;2024-01-16T10:22:29;4.47;;;2.60;;
5650;SDS011;40241;52.684;9.758;2024-01-16T10:25:08;6.53;;;3.67;;
5650;SDS011;40241;52.684;9.758;2024-01-16T10:27:34;5.53;;;3.93;;
5650;SDS011;40241;52.684;9.758;2024-01-16T10:30:01;6.87;;;3.23;;
5650;SDS011;40241;52.684;9.758;2024-01-16T10:35:01;8.23;;;4.43;;
5650;SDS011;40241;52.684;9.758;2024-01-16T10:37:27;3.83;;;3.20;;
5650;SDS011;40241;52.684;9.758;2024-01-16T10:39:52;4.93;;;3.17;;
5650;SDS011;40241;52.684;9.758;2024-01-16T10:42:18;7.60;;;3.50;;
5650;SDS011;40241;52.684;9.758;2024-01-16T10:44:54;9.00;;;4.50;;
5650;SDS011;40241;52.684;9.758;2024-01-16T10:47:21;3.83;;;3.43;;
5650;SDS011;40241;52.684;9.758;2024-01-16T10:49:47;5.03;;;3.10;;
5650;SDS011;40241;52.684;9.758;2024-01-16T10:52:12;7.30;;;3.23;;
5650;SDS011;40241;52.684;9.758;2024-01-16T10:54:42;5.57;;;3.50;;
5650;SDS011;40241;52.684;9.758;2024-01-16T10:57:15;8.90;;;4.20;;
5650;SDS011;40241;52.684;9.758;2024-01-16T11:02:38;7.53;;;3.43;;
5650;SDS011;40241;52.684;9.758;2024-01-16T11:05:08;5.10;;;3.50;;
5650;SDS011;40241;52.684;9.758;2024-01-16T11:07:36;3.80;;;3.50;;
5650;SDS011;40241;52.684;9.758;2024-01-16T11:10:02;10.00;;;3.90;;
5650;SDS011;40241;52.684;9.758;2024-01-16T11:12:29;3.27;;;2.90;;
5650;SDS011;40241;52.684;9.758;2024-01-16T11:14:55;4.93;;;3.07;;
5650;SDS011;40241;52.684;9.758;2024-01-16T11:17:26;5.10;;;3.40;;
5650;SDS011;40241;52.684;9.758;2024-01-16T11:19:54;6.27;;;3.50;;
5650;SDS011;40241;52.684;9.758;2024-01-16T11:22:20;3.73;;;3.10;;
5650;SDS011;40241;52.684;9.758;2024-01-16T11:25:06;4.70;;;3.03;;
5650;SDS011;40241;52.684;9.758;2024-01-16T11:27:39;5.93;;;3.40;;
5650;SDS011;40241;52.684;9.758;2024-01-16T11:30:08;3.53;;;2.77;;
5650;SDS011;40241;52.684;9.758;2024-01-16T11:32:39;2.70;;;2.40;;
5650;SDS011;40241;52.684;9.758;2024-01-16T11:35:09;10.93;;;3.60;;
5650;SDS011;40241;52.684;9.758;2024-01-16T11:37:36;3.97;;;2.80;;
5650;SDS011;40241;52.684;9.758;2024-01-16T11:42:46;4.10;;;3.10;;
5650;SDS011;40241;52.684;9.758;2024-01-16T11:45:48;4.53;;;2.20;;
5650;SDS011;40241;52.684;9.758;2024-01-16T11:48:13;5.30;;;2.57;;
5650;SDS011;40241;52.684;9.758;2024-01-16T11:50:40;3.30;;;3.00;;
5650;SDS011;40241;52.684;9.758;2024-01-16T11:53:06;4.37;;;2.90;;
5650;SDS011;40241;52.684;9.758;2024-01-16T11:55:33;4.30;;;2.80;;
5650;SDS011;40241;52.684;9.758;2024-01-16T11:58:11;4.57;;;2.97;;
5650;SDS011;40241;52.684;9.758;2024-01-16T12:00:49;6.77;;;3.00;;
5650;SDS011;40241;52.684;9.758;2024-01-16T12:03:18;6.57;;;3.33;;
5650;SDS011;40241;52.684;9.758;2024-01-16T12:05:58;2.70;;;2.50;;
5650;SDS011;40241;52.684;9.758;2024-01-16T12:08:24;7.90;;;2.87;;
5650;SDS011;40241;52.684;9.758;2024-01-16T12:10:50;3.10;;;2.70;;
5650;SDS011;40241;52.684;9.758;2024-01-16T12:13:15;4.17;;;2.80;;
5650;SDS011;40241;52.684;9.758;2024-01-16T12:15:41;3.97;;;2.83;;
5650;SDS011;40241;52.684;9.758;2024-01-16T12:18:07;2.73;;;2.53;;
5650;SDS011;40241;52.684;9.758;2024-01-16T12:20:33;3.37;;;2.80;;
5650;SDS011;40241;52.684;9.758;2024-01-16T12:23:00;4.80;;;2.83;;
5650;SDS011;40241;52.684;9.758;2024-01-16T12:25:27;2.50;;;2.30;;
5650;SDS011;40241;52.684;9.758;2024-01-16T12:28:00;3.80;;;3.07;;
5650;SDS011;40241;52.684;9.758;2024-01-16T12:30:35;3.00;;;2.70;;
5650;SDS011;40241;52.684;9.758;2024-01-16T12:33:11;3.63;;;2.33;;
5650;SDS011;40241;52.684;9.758;2024-01-16T12:38:05;5.27;;;2.70;;
5650;SDS011;40241;52.684;9.758;2024-01-16T12:40:34;3.60;;;2.80;;
5650;SDS011;40241;52.684;9.758;2024-01-16T12:43:01;10.53;;;3.00;;
5650;SDS011;40241;52.684;9.758;2024-01-16T12:45:27;3.10;;;2.70;;
5650;SDS011;40241;52.684;9.758;2024-01-16T12:47:53;3.70;;;2.97;;
5650;SDS011;40241;52.684;9.758;2024-01-16T12:50:20;3.30;;;2.40;;
5650;SDS011;40241;52.684;9.758;2024-01-16T12:52:47;2.60;;;2.40;;
5650;SDS011;40241;52.684;9.758;2024-01-16T12:55:14;2.80;;;2.60;;
5650;SDS011;40241;52.684;9.758;2024-01-16T12:57:40;4.10;;;2.37;;
5650;SDS011;40241;52.684;9.758;2024-01-16T13:00:22;2.90;;;2.60;;
5650;SDS011;40241;52.684;9.758;2024-01-16T13:02:49;4.30;;;2.63;;
5650;SDS011;40241;52.684;9.758;2024-01-16T13:05:15;4.30;;;2.73;;
5650;SDS011;40241;52.684;9.758;2024-01-16T13:07:42;3.73;;;2.53;;
5650;SDS011;40241;52.684;9.758;2024-01-16T13:10:08;8.17;;;2.60;;
5650;SDS011;40241;52.684;9.758;2024-01-16T13:12:40;4.17;;;2.50;;
5650;SDS011;40241;52.684;9.758;2024-01-16T13:15:06;5.37;;;2.53;;
5650;SDS011;40241;52.684;9.758;2024-01-16T13:17:33;2.43;;;2.20;;
5650;SDS011;40241;52.684;9.758;2024-01-16T13:19:59;4.17;;;2.23;;
5650;SDS011;40241;52.684;9.758;2024-01-16T13:22:25;5.73;;;2.57;;
5650;SDS011;40241;52.684;9.758;2024-01-16T13:24:50;3.90;;;2.57;;
5650;SDS011;40241;52.684;9.758;2024-01-16T13:27:15;4.67;;;2.30;;
5650;SDS011;40241;52.684;9.758;2024-01-16T13:29:41;3.13;;;2.40;;
5650;SDS011;40241;52.684;9.758;2024-01-16T13:32:07;3.77;;;2.57;;
5650;SDS011;40241;52.684;9.758;2024-01-16T13:34:32;5.33;;;2.50;;
5650;SDS011;40241;52.684;9.758;2024-01-16T13:36:58;6.47;;;2.87;;
5650;SDS011;40241;52.684;9.758;2024-01-16T13:39:26;2.50;;;2.40;;
5650;SDS011;40241;52.684;9.758;2024-01-16T13:41:52;5.73;;;2.20;;
5650;SDS011;40241;52.684;9.758;2024-01-16T13:44:18;3.10;;;1.87;;
5650;SDS011;40241;52.684;9.758;2024-01-16T13:46:43;3.07;;;2.60;;
5650;SDS011;40241;52.684;9.758;2024-01-16T13:49:09;2.47;;;2.13;;
5650;SDS011;40241;52.684;9.758;2024-01-16T13:51:35;4.50;;;2.80;;
5650;SDS011;40241;52.684;9.758;2024-01-16T13:54:00;2.50;;;2.30;;
5650;SDS011;40241;52.684;9.758;2024-01-16T13:56:26;3.20;;;2.37;;
5650;SDS011;40241;52.684;9.758;2024-01-16T13:58:51;3.10;;;2.60;;
5650;SDS011;40241;52.684;9.758;2024-01-16T14:01:16;2.67;;;2.23;;
5650;SDS011;40241;52.684;9.758;2024-01-16T14:03:43;5.03;;;2.57;;
5650;SDS011;40241;52.684;9.758;2024-01-16T14:06:11;5.50;;;2.87;;
5650;SDS011;40241;52.684;9.758;2024-01-16T14:08:38;2.83;;;2.50;;
5650;SDS011;40241;52.684;9.758;2024-01-16T14:11:03;3.73;;;2.70;;
5650;SDS011;40241;52.684;9.758;2024-01-16T14:13:28;4.20;;;2.80;;
5650;SDS011;40241;52.684;9.758;2024-01-16T14:15:54;5.60;;;2.50;;
5650;SDS011;40241;52.684;9.758;2024-01-16T14:18:20;5.53;;;2.80;;
5650;SDS011;40241;52.684;9.758;2024-01-16T14:20:45;4.50;;;2.87;;
5650;SDS011;40241;52.684;9.758;2024-01-16T14:23:10;5.50;;;2.47;;
5650;SDS011;40241;52.684;9.758;2024-01-16T14:25:37;3.83;;;2.83;;
5650;SDS011;40241;52.684;9.758;2024-01-16T14:28:03;4.10;;;3.10;;
5650;SDS011;40241;52.684;9.758;2024-01-16T14:30:28;3.67;;;2.70;;
5650;SDS011;40241;52.684;9.758;2024-01-16T14:32:54;3.53;;;2.40;;
5650;SDS011;40241;52.684;9.758;2024-01-16T14:35:21;3.17;;;2.80;;
5650;SDS011;40241;52.684;9.758;2024-01-16T14:37:47;6.00;;;3.37;;
5650;SDS011;40241;52.684;9.758;2024-01-16T14:40:12;6.77;;;3.37;;
5650;SDS011;40241;52.684;9.758;2024-01-16T14:42:38;5.90;;;3.13;;
5650;SDS011;40241;52.684;9.758;2024-01-16T14:45:05;4.13;;;3.10;;
5650;SDS011;40241;52.684;9.758;2024-01-16T14:47:31;3.70;;;3.20;;
5650;SDS011;40241;52.684;9.758;2024-01-16T14:49:56;5.63;;;3.43;;
5650;SDS011;40241;52.684;9.758;2024-01-16T14:52:22;6.67;;;3.13;;
5650;SDS011;40241;52.684;9.758;2024-01-16T14:54:48;4.37;;;3.60;;
5650;SDS011;40241;52.684;9.758;2024-01-16T14:57:14;3.97;;;3.50;;
5650;SDS011;40241;52.684;9.758;2024-01-16T14:59:40;4.40;;;3.00;;
5650;SDS011;40241;52.684;9.758;2024-01-16T15:02:05;4.23;;;3.17;;
5650;SDS011;40241;52.684;9.758;2024-01-16T15:04:38;5.07;;;3.10;;
5650;SDS011;40241;52.684;9.758;2024-01-16T15:07:05;3.60;;;3.13;;